Terminal Aerodrome Forecast
Issued by NWS

Home | Current Version | Previous Version | Text Only | Print | Product List | Glossary On
Versions: 1 2 3 4 5 6 7 8 9 10 11 12 13 14 15
000
FTUS44 KLZK 230540
TAFADF
TAF
KADF 230540Z 2306/2406 VRB03KT P6SM SCT060 BKN100
     FM231800 30005KT P6SM VCSH BKN060
     FM240000 31003KT P6SM SCT050 BKN080=

USA.gov is the U.S. government's official web portal to all federal, state and local government web resources and services.